createdAt,value
2018-12-08T00:00:47.458Z,10.30
2018-12-08T00:03:15.035Z,10.20
2018-12-08T00:05:42.443Z,10.30
2018-12-08T00:08:11.546Z,10.30
2018-12-08T00:10:38.943Z,10.20
2018-12-08T00:13:07.026Z,10.20
2018-12-08T00:15:34.492Z,10.30
2018-12-08T00:18:01.804Z,10.20
2018-12-08T00:20:29.156Z,10.30
2018-12-08T00:22:56.629Z,10.30
2018-12-08T00:25:24.519Z,10.20
2018-12-08T00:27:53.642Z,10.20
2018-12-08T00:30:32.691Z,10.20
2018-12-08T00:33:00.023Z,10.30
2018-12-08T00:35:28.615Z,10.30
2018-12-08T00:37:56.286Z,10.20
2018-12-08T00:40:24.518Z,10.20
2018-12-08T00:42:52.991Z,10.20
2018-12-08T00:45:20.780Z,10.30
2018-12-08T00:47:48.180Z,10.30
2018-12-08T00:50:15.579Z,10.30
2018-12-08T00:52:42.983Z,10.30
2018-12-08T00:55:10.282Z,10.40
2018-12-08T00:57:38.011Z,10.40
2018-12-08T01:00:06.242Z,10.40
2018-12-08T01:02:33.627Z,10.50
2018-12-08T01:05:02.028Z,10.40
2018-12-08T01:07:31.188Z,10.40
2018-12-08T01:09:58.895Z,10.40
2018-12-08T01:12:26.939Z,10.30
2018-12-08T01:14:54.336Z,10.40
2018-12-08T01:17:21.673Z,10.30
2018-12-08T01:19:48.991Z,10.30
2018-12-08T01:22:16.462Z,10.40
2018-12-08T01:24:44.241Z,10.30
2018-12-08T01:27:12.162Z,10.30
2018-12-08T01:29:39.609Z,10.40
2018-12-08T01:32:06.915Z,10.30
2018-12-08T01:34:34.754Z,10.30
2018-12-08T01:37:02.587Z,10.30
2018-12-08T01:39:30.223Z,10.30
2018-12-08T01:41:57.564Z,10.40
2018-12-08T01:44:25.290Z,10.40
2018-12-08T01:46:52.590Z,10.30
2018-12-08T01:49:20.119Z,10.20
2018-12-08T01:51:47.459Z,10.30
2018-12-08T01:54:14.812Z,10.30
2018-12-08T01:56:42.580Z,10.30
2018-12-08T01:59:09.979Z,10.30
2018-12-08T02:01:38.224Z,10.30
2018-12-08T02:04:05.965Z,10.40
2018-12-08T02:06:33.378Z,10.40
2018-12-08T02:09:00.963Z,10.30
2018-12-08T02:11:29.362Z,10.20
2018-12-08T02:13:56.704Z,10.20
2018-12-08T02:16:24.178Z,10.20
2018-12-08T02:18:51.605Z,10.20
2018-12-08T02:21:20.889Z,10.20
2018-12-08T02:23:48.229Z,10.20
2018-12-08T02:26:15.942Z,10.10
2018-12-08T02:28:43.320Z,10.20
2018-12-08T02:31:10.936Z,10.20
2018-12-08T02:33:38.780Z,10.30
2018-12-08T02:36:06.737Z,10.30
2018-12-08T02:38:35.340Z,10.10
2018-12-08T02:41:03.702Z,10.10
2018-12-08T02:43:31.114Z,10.10
2018-12-08T02:45:59.678Z,10.10
2018-12-08T02:48:28.306Z,10.00
2018-12-08T02:50:55.983Z,9.90
2018-12-08T02:53:23.467Z,9.90
2018-12-08T02:55:51.742Z,9.90
2018-12-08T02:58:19.178Z,9.90
2018-12-08T03:00:47.382Z,9.90
2018-12-08T03:03:14.995Z,9.90
2018-12-08T03:05:42.462Z,9.90
2018-12-08T03:08:10.555Z,9.90
2018-12-08T03:10:38.540Z,9.90
2018-12-08T03:13:06.345Z,9.90
2018-12-08T03:15:33.713Z,9.90
2018-12-08T03:18:08.186Z,9.90
2018-12-08T03:20:35.923Z,9.90
2018-12-08T03:23:03.443Z,9.90
2018-12-08T03:25:32.367Z,9.90
2018-12-08T03:28:00.600Z,9.90
2018-12-08T03:30:28.124Z,10.00
2018-12-08T03:32:56.039Z,10.00
2018-12-08T03:35:23.500Z,10.00
2018-12-08T03:37:51.651Z,10.00
2018-12-08T03:40:19.395Z,10.00
2018-12-08T03:42:46.735Z,10.00
2018-12-08T03:45:14.630Z,10.00
2018-12-08T03:47:41.970Z,10.00
2018-12-08T03:50:10.779Z,10.00
2018-12-08T03:52:38.228Z,10.00
2018-12-08T03:55:06.433Z,9.90
2018-12-08T03:57:34.197Z,9.90
2018-12-08T04:00:04.222Z,9.90
2018-12-08T04:02:33.136Z,9.80
2018-12-08T04:05:00.886Z,9.90
2018-12-08T04:07:28.906Z,9.90
2018-12-08T04:09:57.396Z,9.90
2018-12-08T04:12:24.746Z,9.80
2018-12-08T04:14:53.574Z,9.70
2018-12-08T04:17:21.291Z,9.80
2018-12-08T04:19:48.798Z,9.80
2018-12-08T04:22:16.255Z,9.70
2018-12-08T04:24:43.662Z,9.80
2018-12-08T04:27:10.981Z,9.70
2018-12-08T04:29:38.353Z,9.60
2018-12-08T04:32:05.971Z,9.60
2018-12-08T04:34:33.676Z,9.60
2018-12-08T04:37:01.075Z,9.60
2018-12-08T04:39:28.755Z,9.60
2018-12-08T04:41:56.085Z,9.70
2018-12-08T04:44:24.642Z,9.60
2018-12-08T04:46:52.466Z,9.60
2018-12-08T04:49:20.302Z,9.60
2018-12-08T04:51:48.168Z,9.60
2018-12-08T04:54:16.329Z,9.60
2018-12-08T04:56:44.123Z,9.60
2018-12-08T04:59:11.824Z,9.60
2018-12-08T05:01:40.286Z,9.60
2018-12-08T05:04:08.399Z,9.60
2018-12-08T05:06:36.428Z,9.60
2018-12-08T05:09:06.648Z,9.60
2018-12-08T05:11:34.347Z,9.60
2018-12-08T05:14:02.759Z,9.70
2018-12-08T05:16:31.488Z,9.60
2018-12-08T05:18:59.538Z,9.60
2018-12-08T05:21:27.614Z,9.60
2018-12-08T05:23:54.918Z,9.60
2018-12-08T05:26:24.035Z,9.60
2018-12-08T05:28:51.853Z,9.70
2018-12-08T05:31:20.364Z,9.80
2018-12-08T05:33:47.755Z,9.70
2018-12-08T05:36:16.528Z,9.70
2018-12-08T05:38:45.711Z,9.60
2018-12-08T05:41:13.734Z,9.60
2018-12-08T05:43:41.102Z,9.70
2018-12-08T05:46:10.459Z,9.70
2018-12-08T05:48:38.239Z,9.70
2018-12-08T05:51:05.964Z,9.70
2018-12-08T05:53:33.639Z,9.70
2018-12-08T05:56:00.961Z,9.60
2018-12-08T05:58:29.615Z,9.70
2018-12-08T06:00:57.050Z,9.70
2018-12-08T06:03:24.818Z,9.60
2018-12-08T06:05:52.179Z,9.70
2018-12-08T06:08:20.172Z,9.70
2018-12-08T06:10:47.515Z,9.60
2018-12-08T06:13:15.267Z,9.70
2018-12-08T06:15:42.756Z,9.60
2018-12-08T06:18:10.586Z,9.70
2018-12-08T06:20:38.924Z,9.70
2018-12-08T06:23:06.840Z,9.80
2018-12-08T06:25:36.707Z,9.80
2018-12-08T06:28:15.117Z,9.70
2018-12-08T06:30:43.124Z,9.60
2018-12-08T06:33:10.410Z,9.60
2018-12-08T06:35:38.178Z,9.70
2018-12-08T06:38:06.489Z,9.70
2018-12-08T06:40:35.054Z,9.70
2018-12-08T06:43:02.444Z,9.60
2018-12-08T06:45:29.823Z,9.70
2018-12-08T06:47:58.204Z,9.70
2018-12-08T06:50:25.733Z,9.70
2018-12-08T06:52:54.070Z,9.70
2018-12-08T06:55:21.583Z,9.70
2018-12-08T06:57:50.842Z,9.70
2018-12-08T07:00:18.621Z,9.70
2018-12-08T07:02:46.135Z,9.70
2018-12-08T07:05:13.542Z,9.70
2018-12-08T07:07:42.700Z,9.70
2018-12-08T07:10:11.034Z,9.70
2018-12-08T07:12:38.386Z,9.80
2018-12-08T07:15:06.619Z,9.80
2018-12-08T07:17:34.111Z,9.80
2018-12-08T07:20:01.821Z,9.80
2018-12-08T07:22:30.698Z,9.80
2018-12-08T07:24:58.139Z,9.80
2018-12-08T07:27:26.494Z,9.70
2018-12-08T07:29:54.255Z,9.70
2018-12-08T07:32:21.532Z,9.70
2018-12-08T07:34:49.256Z,9.70
2018-12-08T07:37:17.167Z,9.80
2018-12-08T07:39:44.630Z,9.70
2018-12-08T07:42:11.939Z,9.60
2018-12-08T07:44:39.790Z,9.70
2018-12-08T07:47:07.896Z,9.70
2018-12-08T07:49:35.354Z,9.70
2018-12-08T07:52:02.723Z,9.70
2018-12-08T07:54:30.047Z,9.70
2018-12-08T07:56:58.731Z,9.70
2018-12-08T07:59:26.176Z,9.80
2018-12-08T08:01:54.157Z,9.80
2018-12-08T08:04:22.871Z,9.80
2018-12-08T08:06:50.162Z,9.80
2018-12-08T08:09:18.639Z,9.80
2018-12-08T08:11:46.822Z,9.80
2018-12-08T08:14:15.444Z,9.70
2018-12-08T08:16:43.526Z,9.70
2018-12-08T08:19:11.285Z,9.70
2018-12-08T08:21:39.107Z,9.80
2018-12-08T08:24:06.421Z,9.80
2018-12-08T08:26:33.934Z,9.70
2018-12-08T08:29:01.882Z,9.70
2018-12-08T08:31:29.421Z,9.70
2018-12-08T08:33:57.468Z,9.80
2018-12-08T08:36:25.289Z,9.60
2018-12-08T08:38:52.761Z,9.80
2018-12-08T08:41:21.436Z,10.00
2018-12-08T08:43:49.128Z,9.70
2018-12-08T08:46:16.475Z,9.70
2018-12-08T08:48:43.838Z,9.60
2018-12-08T08:51:11.200Z,9.70
2018-12-08T08:53:39.724Z,9.60
2018-12-08T08:56:07.566Z,9.70
2018-12-08T08:58:36.043Z,9.60
2018-12-08T09:01:03.402Z,9.70
2018-12-08T09:03:31.186Z,9.70
2018-12-08T09:05:59.048Z,9.70
2018-12-08T09:08:27.248Z,9.80
2018-12-08T09:10:54.650Z,9.80
2018-12-08T09:13:22.319Z,9.80
2018-12-08T09:15:50.873Z,9.80
2018-12-08T09:18:18.840Z,9.90
2018-12-08T09:20:46.955Z,9.90
2018-12-08T09:23:16.094Z,9.90
2018-12-08T09:25:43.651Z,9.80
2018-12-08T09:28:11.524Z,9.80
2018-12-08T09:30:39.749Z,9.90
2018-12-08T09:33:07.203Z,9.80
2018-12-08T09:35:35.607Z,9.80
2018-12-08T09:38:03.027Z,9.70
2018-12-08T09:40:30.443Z,9.80
2018-12-08T09:42:58.390Z,9.90
2018-12-08T09:45:26.210Z,9.90
2018-12-08T09:47:54.516Z,9.80
2018-12-08T09:50:21.931Z,9.80
2018-12-08T09:53:01.291Z,9.90
2018-12-08T09:55:29.505Z,9.80
2018-12-08T09:57:57.444Z,9.80
2018-12-08T10:00:24.902Z,9.80
2018-12-08T10:02:52.220Z,9.90
2018-12-08T10:05:19.594Z,9.90
2018-12-08T10:07:47.851Z,9.90
2018-12-08T10:10:16.952Z,9.90
2018-12-08T10:12:45.461Z,10.00
2018-12-08T10:15:13.030Z,10.10
2018-12-08T10:17:41.539Z,10.10
2018-12-08T10:20:09.474Z,10.00
2018-12-08T10:22:37.422Z,10.00
2018-12-08T10:25:05.461Z,9.90
2018-12-08T10:27:32.948Z,9.90
2018-12-08T10:30:00.471Z,10.00
2018-12-08T10:32:27.781Z,10.00
2018-12-08T10:34:55.262Z,10.00
2018-12-08T10:37:24.471Z,10.00
2018-12-08T10:39:52.461Z,10.00
2018-12-08T10:42:19.936Z,9.90
2018-12-08T10:44:47.339Z,9.90
2018-12-08T10:47:16.094Z,9.90
2018-12-08T10:49:43.433Z,10.00
2018-12-08T10:52:11.635Z,10.00
2018-12-08T10:54:39.830Z,10.00
2018-12-08T10:57:07.672Z,10.00
2018-12-08T10:59:36.787Z,9.90
2018-12-08T11:02:06.731Z,9.90
2018-12-08T11:04:34.596Z,10.00
2018-12-08T11:07:02.376Z,9.90
2018-12-08T11:09:30.537Z,9.90
2018-12-08T11:11:58.941Z,10.20
2018-12-08T11:14:27.428Z,10.00
2018-12-08T11:16:55.418Z,10.10
2018-12-08T11:19:23.163Z,10.10
2018-12-08T11:21:51.443Z,10.00
2018-12-08T11:24:19.033Z,10.10
2018-12-08T11:26:46.903Z,10.10
2018-12-08T11:29:14.218Z,10.30
2018-12-08T11:31:41.887Z,10.10
2018-12-08T11:34:09.271Z,10.10
2018-12-08T11:36:37.834Z,10.00
2018-12-08T11:39:06.398Z,10.10
2018-12-08T11:41:34.719Z,10.20
2018-12-08T11:44:02.068Z,10.20
2018-12-08T11:46:29.404Z,10.20
2018-12-08T11:48:56.783Z,10.20
2018-12-08T11:51:24.090Z,10.20
2018-12-08T11:53:51.902Z,10.20
2018-12-08T11:56:19.416Z,10.20
2018-12-08T11:58:47.205Z,10.20
2018-12-08T12:01:16.429Z,10.30
2018-12-08T12:03:44.996Z,10.20
2018-12-08T12:06:13.971Z,10.40
2018-12-08T12:08:41.355Z,10.40
2018-12-08T12:11:10.833Z,10.40
2018-12-08T12:13:38.403Z,10.30
2018-12-08T12:16:05.743Z,10.40
2018-12-08T12:18:33.706Z,10.40
2018-12-08T12:21:02.367Z,10.40
2018-12-08T12:23:30.414Z,10.50
2018-12-08T12:25:57.855Z,10.60
2018-12-08T12:28:25.194Z,10.50
2018-12-08T12:30:53.471Z,10.50
2018-12-08T12:33:21.755Z,10.50
2018-12-08T12:35:50.195Z,10.60
2018-12-08T12:38:18.038Z,10.50
2018-12-08T12:40:45.759Z,10.50
2018-12-08T12:43:13.702Z,10.60
2018-12-08T12:45:41.544Z,10.60
2018-12-08T12:48:08.914Z,10.60
2018-12-08T12:50:38.150Z,10.60
2018-12-08T12:53:06.248Z,10.60
2018-12-08T12:55:33.827Z,10.60
2018-12-08T12:58:01.401Z,10.60
2018-12-08T13:00:29.394Z,10.60
2018-12-08T13:02:57.061Z,10.60
2018-12-08T13:05:24.775Z,10.50
2018-12-08T13:07:52.116Z,10.60
2018-12-08T13:10:19.590Z,10.60
2018-12-08T13:12:46.940Z,10.60
2018-12-08T13:15:15.026Z,10.60
2018-12-08T13:17:42.862Z,10.60
2018-12-08T13:20:10.359Z,10.60
2018-12-08T13:22:37.953Z,10.60
2018-12-08T13:25:17.649Z,10.60
2018-12-08T13:27:45.144Z,10.60
2018-12-08T13:30:12.682Z,10.60
2018-12-08T13:32:40.079Z,10.60
2018-12-08T13:35:09.684Z,10.60
2018-12-08T13:37:36.988Z,10.70
2018-12-08T13:40:05.336Z,10.70
2018-12-08T13:42:33.363Z,10.60
2018-12-08T13:45:15.462Z,10.60
2018-12-08T13:47:43.462Z,10.70
2018-12-08T13:50:11.862Z,10.70
2018-12-08T13:52:39.627Z,10.70
2018-12-08T13:55:07.259Z,10.70
2018-12-08T13:57:35.067Z,10.70
2018-12-08T14:00:04.365Z,10.60
2018-12-08T14:02:32.578Z,10.70
2018-12-08T14:05:00.192Z,10.60
2018-12-08T14:07:27.547Z,10.70
2018-12-08T14:09:55.123Z,10.00
2018-12-08T14:12:23.888Z,10.70
2018-12-08T14:14:51.752Z,10.60
2018-12-08T14:17:19.253Z,10.60
2018-12-08T14:19:46.771Z,10.70
2018-12-08T14:22:14.951Z,10.70
2018-12-08T14:24:42.266Z,10.70
2018-12-08T14:27:09.834Z,10.70
2018-12-08T14:29:37.218Z,10.70
2018-12-08T14:32:05.226Z,10.60
2018-12-08T14:34:32.794Z,10.60
2018-12-08T14:37:00.488Z,10.60
2018-12-08T14:39:28.065Z,10.60
2018-12-08T14:41:55.806Z,10.60
2018-12-08T14:44:23.311Z,10.60
2018-12-08T14:46:51.747Z,10.60
2018-12-08T14:49:19.602Z,10.50
2018-12-08T14:51:48.286Z,10.50
2018-12-08T14:54:16.368Z,10.50
2018-12-08T14:56:43.902Z,10.50
2018-12-08T14:59:11.636Z,10.50
2018-12-08T15:01:39.163Z,10.60
2018-12-08T15:04:06.829Z,10.50
2018-12-08T15:06:34.535Z,10.50
2018-12-08T15:09:03.591Z,11.00
2018-12-08T15:11:31.187Z,10.50
2018-12-08T15:13:58.512Z,10.40
2018-12-08T15:16:27.731Z,10.40
2018-12-08T15:18:56.267Z,10.40
2018-12-08T15:21:24.341Z,10.50
2018-12-08T15:23:53.354Z,10.50
2018-12-08T15:26:21.097Z,10.40
2018-12-08T15:28:49.034Z,10.50
2018-12-08T15:31:17.667Z,10.40
2018-12-08T15:33:45.001Z,10.50
2018-12-08T15:36:12.466Z,10.50
2018-12-08T15:38:40.632Z,10.50
2018-12-08T15:41:07.970Z,10.40
2018-12-08T15:43:36.827Z,10.50
2018-12-08T15:46:04.336Z,10.50
2018-12-08T15:48:31.841Z,10.40
2018-12-08T15:50:59.399Z,10.40
2018-12-08T15:53:26.858Z,10.40
2018-12-08T15:55:54.739Z,10.40
2018-12-08T15:58:22.094Z,10.30
2018-12-08T16:00:49.509Z,10.30
2018-12-08T16:03:18.634Z,10.30
2018-12-08T16:05:46.010Z,10.30
2018-12-08T16:08:13.555Z,10.30
2018-12-08T16:10:42.111Z,10.30
2018-12-08T16:13:10.668Z,10.30
2018-12-08T16:15:38.190Z,10.30
2018-12-08T16:18:05.569Z,10.30
2018-12-08T16:20:33.071Z,10.30
2018-12-08T16:23:00.689Z,10.30
2018-12-08T16:25:28.147Z,10.30
2018-12-08T16:27:56.898Z,10.30
2018-12-08T16:30:24.516Z,10.30
2018-12-08T16:32:52.106Z,10.20
2018-12-08T16:35:20.713Z,10.20
2018-12-08T16:37:48.277Z,10.20
2018-12-08T16:40:16.707Z,10.30
2018-12-08T16:42:46.055Z,10.20
2018-12-08T16:45:13.461Z,10.20
2018-12-08T16:47:41.079Z,10.20
2018-12-08T16:50:09.325Z,10.20
2018-12-08T16:52:36.850Z,10.20
2018-12-08T16:55:05.227Z,10.20
2018-12-08T16:57:32.819Z,10.30
2018-12-08T17:00:00.327Z,10.30
2018-12-08T17:02:29.031Z,10.20
2018-12-08T17:04:56.950Z,10.30
2018-12-08T17:07:25.384Z,10.30
2018-12-08T17:09:53.616Z,10.30
2018-12-08T17:12:21.578Z,10.30
2018-12-08T17:14:49.922Z,10.20
2018-12-08T17:17:18.156Z,10.20
2018-12-08T17:19:45.571Z,10.30
2018-12-08T17:22:13.471Z,10.20
2018-12-08T17:24:40.839Z,10.30
2018-12-08T17:27:08.379Z,10.20
2018-12-08T17:29:35.793Z,10.30
2018-12-08T17:32:03.410Z,10.20
2018-12-08T17:34:31.913Z,10.20
2018-12-08T17:37:00.781Z,10.20
2018-12-08T17:39:28.235Z,10.20
2018-12-08T17:41:55.536Z,10.20
2018-12-08T17:44:23.048Z,10.20
2018-12-08T17:46:51.708Z,10.10
2018-12-08T17:49:19.566Z,10.20
2018-12-08T17:51:47.028Z,10.20
2018-12-08T17:54:14.379Z,10.20
2018-12-08T17:56:42.230Z,10.20
2018-12-08T17:59:10.978Z,10.20
2018-12-08T18:01:38.819Z,10.20
2018-12-08T18:04:07.705Z,10.20
2018-12-08T18:06:35.424Z,10.20
2018-12-08T18:09:04.859Z,10.10
2018-12-08T18:11:32.168Z,10.20
2018-12-08T18:14:00.804Z,10.30
2018-12-08T18:16:28.161Z,10.20
2018-12-08T18:18:56.355Z,10.20
2018-12-08T18:21:23.774Z,10.20
2018-12-08T18:23:51.870Z,10.20
2018-12-08T18:26:19.226Z,10.20
2018-12-08T18:28:47.163Z,10.30
2018-12-08T18:31:14.810Z,10.30
2018-12-08T18:33:44.497Z,10.20
2018-12-08T18:36:13.446Z,10.20
2018-12-08T18:38:41.261Z,10.30
2018-12-08T18:41:09.625Z,10.30
2018-12-08T18:43:37.055Z,10.30
2018-12-08T18:46:05.176Z,10.30
2018-12-08T18:48:33.079Z,10.20
2018-12-08T18:51:00.577Z,10.30
2018-12-08T18:53:28.006Z,10.20
2018-12-08T18:55:55.518Z,10.30
2018-12-08T18:58:23.639Z,10.30
2018-12-08T19:00:51.225Z,10.30
2018-12-08T19:03:20.267Z,10.30
2018-12-08T19:05:48.979Z,10.30
2018-12-08T19:08:16.296Z,10.30
2018-12-08T19:10:43.599Z,10.30
2018-12-08T19:13:11.723Z,10.30
2018-12-08T19:15:39.710Z,10.30
2018-12-08T19:18:07.408Z,10.30
2018-12-08T19:20:35.522Z,10.20
2018-12-08T19:23:02.922Z,10.30
2018-12-08T19:25:30.577Z,10.20
2018-12-08T19:27:58.470Z,10.20
2018-12-08T19:30:25.847Z,10.30
2018-12-08T19:32:53.594Z,10.30
2018-12-08T19:35:20.932Z,10.30
2018-12-08T19:37:50.171Z,10.30
2018-12-08T19:40:18.847Z,10.30
2018-12-08T19:42:47.242Z,10.20
2018-12-08T19:45:14.742Z,10.20
2018-12-08T19:47:42.287Z,10.20
2018-12-08T19:50:09.647Z,10.10
2018-12-08T19:52:38.332Z,10.30
2018-12-08T19:55:06.046Z,10.20
2018-12-08T19:57:33.344Z,10.20
2018-12-08T20:00:00.680Z,10.20
2018-12-08T20:02:28.118Z,10.20
2018-12-08T20:04:55.954Z,10.20
2018-12-08T20:07:23.547Z,10.30
2018-12-08T20:09:50.886Z,10.20
2018-12-08T20:12:18.732Z,10.20
2018-12-08T20:14:46.296Z,10.20
2018-12-08T20:17:14.446Z,10.10
2018-12-08T20:19:41.847Z,10.10
2018-12-08T20:22:09.610Z,10.10
2018-12-08T20:24:37.400Z,10.10
2018-12-08T20:27:04.896Z,10.20
2018-12-08T20:29:32.956Z,10.20
2018-12-08T20:32:00.325Z,10.20
2018-12-08T20:34:27.696Z,10.10
2018-12-08T20:36:55.351Z,10.20
2018-12-08T20:39:24.090Z,10.20
2018-12-08T20:41:51.740Z,10.20
2018-12-08T20:44:19.478Z,10.10
2018-12-08T20:46:47.985Z,10.20
2018-12-08T20:49:16.876Z,10.20
2018-12-08T20:51:44.354Z,10.20
2018-12-08T20:54:11.754Z,10.20
2018-12-08T20:56:39.964Z,10.20
2018-12-08T20:59:07.543Z,10.10
2018-12-08T21:01:36.833Z,10.20
2018-12-08T21:04:04.489Z,10.10
2018-12-08T21:06:32.887Z,10.20
2018-12-08T21:09:00.302Z,10.20
2018-12-08T21:11:27.649Z,10.20
2018-12-08T21:13:56.262Z,10.20
2018-12-08T21:16:24.315Z,10.20
2018-12-08T21:18:52.642Z,10.20
2018-12-08T21:21:21.178Z,10.20
2018-12-08T21:23:48.883Z,10.30
2018-12-08T21:26:16.501Z,10.30
2018-12-08T21:28:44.095Z,10.30
2018-12-08T21:31:11.526Z,10.30
2018-12-08T21:33:40.936Z,10.30
2018-12-08T21:36:09.460Z,10.20
2018-12-08T21:38:37.558Z,10.20
2018-12-08T21:41:04.994Z,10.20
2018-12-08T21:43:32.559Z,10.30
2018-12-08T21:46:00.560Z,10.30
2018-12-08T21:48:27.994Z,10.30
2018-12-08T21:50:55.366Z,10.30
2018-12-08T21:53:22.914Z,10.30
2018-12-08T21:55:50.456Z,10.30
2018-12-08T21:58:18.510Z,10.30
2018-12-08T22:00:45.851Z,10.30
2018-12-08T22:03:14.098Z,10.40
2018-12-08T22:05:42.357Z,10.40
2018-12-08T22:08:09.780Z,10.40
2018-12-08T22:10:37.139Z,10.40
2018-12-08T22:13:04.478Z,10.40
2018-12-08T22:15:32.241Z,10.40
2018-12-08T22:17:59.626Z,10.40
2018-12-08T22:20:27.415Z,10.40
2018-12-08T22:22:54.994Z,10.40
2018-12-08T22:25:23.730Z,10.40
2018-12-08T22:27:51.189Z,10.50
2018-12-08T22:30:19.091Z,10.50
2018-12-08T22:32:48.066Z,10.50
2018-12-08T22:35:15.514Z,10.50
2018-12-08T22:37:42.932Z,10.60
2018-12-08T22:40:12.128Z,10.50
2018-12-08T22:42:40.360Z,10.50
2018-12-08T22:45:08.331Z,10.50
2018-12-08T22:47:35.637Z,10.60
2018-12-08T22:50:06.051Z,10.60
2018-12-08T22:52:33.319Z,10.60
2018-12-08T22:55:01.662Z,10.60
2018-12-08T22:57:29.468Z,10.60
2018-12-08T22:59:57.235Z,10.70
2018-12-08T23:02:25.443Z,10.70
2018-12-08T23:04:52.966Z,10.60
2018-12-08T23:07:20.718Z,10.60
2018-12-08T23:09:48.167Z,10.60
2018-12-08T23:12:15.492Z,10.50
2018-12-08T23:14:42.915Z,10.40
2018-12-08T23:17:11.814Z,10.50
2018-12-08T23:19:39.515Z,10.50
2018-12-08T23:22:07.032Z,10.50
2018-12-08T23:24:34.418Z,10.40
2018-12-08T23:27:02.149Z,10.50
2018-12-08T23:29:29.769Z,10.50
2018-12-08T23:31:58.905Z,10.40
2018-12-08T23:34:26.834Z,10.40
2018-12-08T23:36:54.423Z,10.40
2018-12-08T23:39:22.902Z,10.40
2018-12-08T23:41:51.418Z,10.40
2018-12-08T23:44:19.162Z,10.40
2018-12-08T23:46:47.082Z,10.30
2018-12-08T23:49:14.467Z,10.40
2018-12-08T23:51:42.451Z,10.40
2018-12-08T23:54:09.812Z,10.40
2018-12-08T23:56:37.777Z,10.50
2018-12-08T23:59:05.176Z,10.40
